Time,TemperatureF,DewpointF,PressureIn,WindDirection,WindDirectionDegrees,WindSpeedMPH,WindSpeedGustMPH,Humidity,HourlyPrecipIn,Conditions,Clouds,dailyrainin,SoftwareType,DateUTC
2013-07-14 00:00:00,74.0,70.9,30.05,SSE,160,0.0,0.0,90,0.00,CLR,,0.00,WeatherDisplay:10.37,2013-07-13 22:00:00,
2013-07-14 08:10:00,74.8,70.0,30.03,West,261,0.0,4.0,85,0.00,CLR,,0.00,WeatherDisplay:10.37,2013-07-14 06:10:00,
2013-07-14 08:20:00,75.3,70.1,30.03,SW,214,0.0,5.0,84,0.00,CLR,,0.00,WeatherDisplay:10.37,2013-07-14 06:20:00,
2013-07-14 08:30:00,76.1,70.5,30.03,SSW,203,0.0,4.0,83,0.00,CLR,,0.00,WeatherDisplay:10.37,2013-07-14 06:30:00,
2013-07-14 08:40:00,76.7,70.8,30.04,SW,214,1.0,4.0,82,0.00,CLR,,0.00,WeatherDisplay:10.37,2013-07-14 06:40:00,
2013-07-14 08:50:00,76.5,70.6,30.03,South,191,1.0,6.0,82,0.00,CLR,,0.00,WeatherDisplay:10.37,2013-07-14 06:50:00,
2013-07-14 09:00:00,76.6,71.1,30.03,SSW,198,2.0,5.0,83,0.00,CLR,,0.00,WeatherDisplay:10.37,2013-07-14 07:00:00,
2013-07-14 09:10:00,76.6,70.3,30.03,WSW,247,0.0,4.0,81,0.00,CLR,,0.00,WeatherDisplay:10.37,2013-07-14 07:10:00,
2013-07-14 09:20:00,77.6,70.9,30.03,SSW,211,0.0,2.0,80,0.00,CLR,,0.00,WeatherDisplay:10.37,2013-07-14 07:20:00,
2013-07-14 09:30:00,77.5,70.8,30.03,WSW,246,0.0,2.0,80,0.00,CLR,,0.00,WeatherDisplay:10.37,2013-07-14 07:30:00,
2013-07-14 09:40:00,77.0,70.7,30.03,WSW,245,0.0,3.0,81,0.00,CLR,,0.00,WeatherDisplay:10.37,2013-07-14 07:40:00,
2013-07-14 09:50:00,76.9,70.6,30.03,SE,136,0.0,5.0,81,0.00,CLR,,0.00,WeatherDisplay:10.37,2013-07-14 07:50:00,
2013-07-14 10:00:00,77.8,70.0,30.03,SSE,160,1.0,3.0,77,0.00,CLR,,0.00,WeatherDisplay:10.37,2013-07-14 08:00:00,
2013-07-14 10:10:00,78.4,69.8,30.03,SE,135,1.0,4.0,75,0.00,CLR,,0.00,WeatherDisplay:10.37,2013-07-14 08:10:00,
2013-07-14 10:20:00,78.9,70.6,30.03,East,90,0.0,3.0,76,0.00,CLR,,0.00,WeatherDisplay:10.37,2013-07-14 08:20:00,
2013-07-14 10:30:00,78.9,69.9,30.03,SE,140,1.0,4.0,74,0.00,CLR,,0.00,WeatherDisplay:10.37,2013-07-14 08:30:00,
2013-07-14 10:40:00,78.5,69.9,30.03,ESE,114,3.0,7.0,75,0.00,CLR,,0.00,WeatherDisplay:10.37,2013-07-14 08:40:00,
2013-07-14 10:50:00,77.6,69.5,30.03,ESE,107,1.0,7.0,76,0.00,CLR,,0.00,WeatherDisplay:10.37,2013-07-14 08:50:00,
2013-07-14 11:00:00,78.7,69.7,30.03,East,100,3.0,6.0,74,0.00,CLR,,0.00,WeatherDisplay:10.37,2013-07-14 09:00:00,
2013-07-14 11:10:00,79.0,69.6,30.03,ESE,113,6.0,8.0,73,0.00,CLR,,0.00,WeatherDisplay:10.37,2013-07-14 09:10:00,
2013-07-14 11:20:00,79.0,69.6,30.03,SE,142,3.0,8.0,73,0.00,CLR,,0.00,WeatherDisplay:10.37,2013-07-14 09:20:00,
2013-07-14 11:30:00,78.7,69.3,30.03,SE,131,2.0,7.0,73,0.00,CLR,,0.00,WeatherDisplay:10.37,2013-07-14 09:30:00,
2013-07-14 11:40:00,78.8,69.8,30.04,SE,130,2.0,7.0,74,0.00,CLR,,0.00,WeatherDisplay:10.37,2013-07-14 09:40:00,
2013-07-14 11:50:00,79.3,69.8,30.04,SE,141,2.0,5.0,73,0.00,CLR,,0.00,WeatherDisplay:10.37,2013-07-14 09:50:00,
2013-07-14 12:00:00,79.7,70.7,30.04,SSE,158,1.0,6.0,74,0.00,CLR,,0.00,WeatherDisplay:10.37,2013-07-14 10:00:00,
2013-07-14 12:10:00,80.2,71.2,30.04,South,188,1.0,7.0,74,0.00,CLR,,0.00,WeatherDisplay:10.37,2013-07-14 10:10:00,
2013-07-14 12:20:00,80.9,70.6,30.04,SW,233,3.0,10.0,71,0.00,CLR,,0.00,WeatherDisplay:10.37,2013-07-14 10:20:00,
2013-07-14 12:30:00,80.2,68.7,30.04,West,269,5.0,8.0,68,0.00,CLR,,0.00,WeatherDisplay:10.37,2013-07-14 10:30:00,
2013-07-14 12:40:00,81.1,67.7,30.04,SW,229,6.0,9.0,64,0.00,CLR,,0.00,WeatherDisplay:10.37,2013-07-14 10:40:00,
2013-07-14 12:50:00,80.9,67.5,30.04,West,270,6.0,12.0,64,0.00,CLR,,0.00,WeatherDisplay:10.37,2013-07-14 10:50:00,
2013-07-14 13:00:00,80.7,66.0,30.03,West,262,5.0,12.0,61,0.00,CLR,,0.00,WeatherDisplay:10.37,2013-07-14 11:00:00,
2013-07-14 13:10:00,81.5,64.3,30.03,West,261,5.0,13.0,56,0.00,CLR,,0.00,WeatherDisplay:10.37,2013-07-14 11:10:00,
2013-07-14 13:20:00,80.8,65.6,30.03,West,259,5.0,13.0,60,0.00,CLR,,0.00,WeatherDisplay:10.37,2013-07-14 11:20:00,
2013-07-14 13:30:00,80.8,67.0,30.02,West,266,5.0,14.0,63,0.00,CLR,,0.00,WeatherDisplay:10.37,2013-07-14 11:30:00,
2013-07-14 13:40:00,81.0,67.7,30.03,WSW,244,6.0,12.0,64,0.00,CLR,,0.00,WeatherDisplay:10.37,2013-07-14 11:40:00,
2013-07-14 13:50:00,81.0,69.0,30.03,West,270,5.0,12.0,67,0.00,CLR,,0.00,WeatherDisplay:10.37,2013-07-14 11:50:00,
2013-07-14 14:00:00,80.4,69.3,30.02,West,274,6.0,12.0,69,0.00,CLR,,0.00,WeatherDisplay:10.37,2013-07-14 12:00:00,
2013-07-14 14:10:00,80.5,70.3,30.02,WSW,257,2.0,12.0,71,0.00,CLR,,0.00,WeatherDisplay:10.37,2013-07-14 12:10:00,
2013-07-14 14:20:00,81.2,70.1,30.02,West,271,5.0,12.0,69,0.00,CLR,,0.00,WeatherDisplay:10.37,2013-07-14 12:20:00,
2013-07-14 14:30:00,81.0,69.0,30.02,WNW,286,5.0,12.0,67,0.00,CLR,,0.00,WeatherDisplay:10.37,2013-07-14 12:30:00,
2013-07-14 14:40:00,81.5,65.8,30.02,West,275,8.0,14.0,59,0.00,CLR,,0.00,WeatherDisplay:10.37,2013-07-14 12:40:00,
2013-07-14 14:50:00,81.7,63.4,30.02,West,277,8.0,13.0,54,0.00,CLR,,0.00,WeatherDisplay:10.37,2013-07-14 12:50:00,
2013-07-14 15:00:00,81.9,64.7,30.03,WNW,291,6.0,14.0,56,0.00,CLR,,0.00,WeatherDisplay:10.37,2013-07-14 13:00:00,
2013-07-14 15:10:00,82.1,66.4,30.02,WSW,257,6.0,12.0,59,0.00,CLR,,0.00,WeatherDisplay:10.37,2013-07-14 13:10:00,
2013-07-14 15:20:00,81.9,69.0,30.02,West,265,6.0,13.0,65,0.00,CLR,,0.00,WeatherDisplay:10.37,2013-07-14 13:20:00,
2013-07-14 15:30:00,80.9,70.2,30.02,WNW,292,3.0,14.0,70,0.00,CLR,,0.00,WeatherDisplay:10.37,2013-07-14 13:30:00,
2013-07-14 15:40:00,81.5,70.8,30.02,WSW,254,5.0,12.0,70,0.00,CLR,,0.00,WeatherDisplay:10.37,2013-07-14 13:40:00,
2013-07-14 15:50:00,81.3,68.4,30.02,West,277,7.0,14.0,65,0.00,CLR,,0.00,WeatherDisplay:10.37,2013-07-14 13:50:00,
2013-07-14 16:00:00,81.5,69.0,30.02,WNW,284,8.0,13.0,66,0.00,CLR,,0.00,WeatherDisplay:10.37,2013-07-14 14:00:00,
2013-07-14 16:10:00,81.1,69.1,30.02,West,271,8.0,15.0,67,0.00,CLR,,0.00,WeatherDisplay:10.37,2013-07-14 14:10:00,
2013-07-14 16:20:00,80.4,69.3,30.02,West,280,8.0,14.0,69,0.00,CLR,,0.00,WeatherDisplay:10.37,2013-07-14 14:20:00,
2013-07-14 16:30:00,80.8,70.1,30.02,WNW,293,7.0,14.0,70,0.00,CLR,,0.00,WeatherDisplay:10.37,2013-07-14 14:30:00,
2013-07-14 16:40:00,80.1,69.5,30.02,WNW,295,5.0,16.0,70,0.00,CLR,,0.00,WeatherDisplay:10.37,2013-07-14 14:40:00,
2013-07-14 16:50:00,80.1,70.3,30.02,WNW,297,7.0,15.0,72,0.00,CLR,,0.00,WeatherDisplay:10.37,2013-07-14 14:50:00,
2013-07-14 17:00:00,80.1,69.8,30.02,WNW,293,7.0,14.0,71,0.00,CLR,,0.00,WeatherDisplay:10.37,2013-07-14 15:00:00,
2013-07-14 17:10:00,79.4,69.6,30.03,WNW,292,7.0,16.0,72,0.00,CLR,,0.00,WeatherDisplay:10.37,2013-07-14 15:10:00,
2013-07-14 17:20:00,80.1,69.5,30.03,NW,310,7.0,14.0,70,0.00,CLR,,0.00,WeatherDisplay:10.37,2013-07-14 15:20:00,
2013-07-14 17:30:00,79.5,69.3,30.03,NW,304,6.0,12.0,71,0.00,CLR,,0.00,WeatherDisplay:10.37,2013-07-14 15:30:00,
2013-07-14 17:40:00,79.5,69.3,30.03,WNW,297,8.0,14.0,71,0.00,CLR,,0.00,WeatherDisplay:10.37,2013-07-14 15:40:00,
2013-07-14 17:50:00,79.6,69.3,30.03,WNW,297,8.0,12.0,71,0.00,CLR,,0.00,WeatherDisplay:10.37,2013-07-14 15:50:00,
2013-07-14 18:00:00,79.5,69.7,30.03,NW,307,6.0,15.0,72,0.00,CLR,,0.00,WeatherDisplay:10.37,2013-07-14 16:00:00,
2013-07-14 18:10:00,79.3,69.9,30.03,WNW,297,6.0,14.0,73,0.00,CLR,,0.00,WeatherDisplay:10.37,2013-07-14 16:10:00,
2013-07-14 18:20:00,79.2,70.2,30.03,NW,304,8.0,13.0,74,0.00,CLR,,0.00,WeatherDisplay:10.37,2013-07-14 16:20:00,
2013-07-14 18:30:00,78.9,68.7,30.03,NW,310,7.0,15.0,71,0.00,CLR,,0.00,WeatherDisplay:10.37,2013-07-14 16:30:00,
2013-07-14 18:40:00,78.8,68.6,30.04,NW,323,6.0,16.0,71,0.00,CLR,,0.00,WeatherDisplay:10.37,2013-07-14 16:40:00,
2013-07-14 18:50:00,77.1,65.3,30.05,NNE,16,10.0,23.0,67,0.00,CLR,,0.00,WeatherDisplay:10.37,2013-07-14 16:50:00,
2013-07-14 19:00:00,74.4,64.8,30.04,NNE,16,10.0,23.0,72,0.00,CLR,,0.00,WeatherDisplay:10.37,2013-07-14 17:00:00,
2013-07-14 19:10:00,74.2,66.1,30.04,NNE,24,8.0,14.0,76,0.00,CLR,,0.00,WeatherDisplay:10.37,2013-07-14 17:10:00,
2013-07-14 19:20:00,75.3,66.0,30.03,North,357,3.0,12.0,73,0.00,CLR,,0.00,WeatherDisplay:10.37,2013-07-14 17:20:00,
2013-07-14 19:30:00,76.9,66.7,30.02,NNW,334,2.0,6.0,71,0.00,CLR,,0.00,WeatherDisplay:10.37,2013-07-14 17:30:00,
2013-07-14 19:40:00,78.2,67.2,30.03,NNE,32,1.0,4.0,69,0.00,CLR,,0.00,WeatherDisplay:10.37,2013-07-14 17:40:00,
2013-07-14 19:50:00,76.4,66.7,30.03,SSE,151,3.0,7.0,72,0.00,CLR,,0.00,WeatherDisplay:10.37,2013-07-14 17:50:00,
2013-07-14 20:00:00,75.7,67.2,30.03,SE,137,5.0,6.0,75,0.00,CLR,,0.00,WeatherDisplay:10.37,2013-07-14 18:00:00,
2013-07-14 20:10:00,75.5,67.0,30.03,NE,43,2.0,6.0,75,0.00,CLR,,0.00,WeatherDisplay:10.37,2013-07-14 18:10:00,
2013-07-14 20:20:00,75.4,66.9,30.03,East,95,2.0,6.0,75,0.00,CLR,,0.00,WeatherDisplay:10.37,2013-07-14 18:20:00,
2013-07-14 20:30:00,74.6,66.9,30.03,ESE,105,1.0,5.0,77,0.00,CLR,,0.00,WeatherDisplay:10.37,2013-07-14 18:30:00,
2013-07-14 20:40:00,73.9,66.6,30.03,ESE,106,2.0,6.0,78,0.00,CLR,,0.00,WeatherDisplay:10.37,2013-07-14 18:40:00,
2013-07-14 20:50:00,72.9,66.4,30.03,NNE,12,6.0,12.0,80,0.00,CLR,,0.00,WeatherDisplay:10.37,2013-07-14 18:50:00,
2013-07-14 21:00:00,72.7,66.1,30.03,NE,34,3.0,9.0,80,0.00,CLR,,0.00,WeatherDisplay:10.37,2013-07-14 19:00:00,
2013-07-14 21:10:00,72.6,65.7,30.03,NNW,344,5.0,10.0,79,0.00,CLR,,0.00,WeatherDisplay:10.37,2013-07-14 19:10:00,
2013-07-14 21:20:00,72.4,65.5,30.03,North,354,3.0,9.0,79,0.00,CLR,,0.00,WeatherDisplay:10.37,2013-07-14 19:20:00,
2013-07-14 21:30:00,72.7,65.4,30.03,North,352,2.0,5.0,78,0.00,CLR,,0.00,WeatherDisplay:10.37,2013-07-14 19:30:00,
2013-07-14 21:40:00,73.3,65.3,30.04,North,356,2.0,5.0,76,0.00,CLR,,0.00,WeatherDisplay:10.37,2013-07-14 19:40:00,
2013-07-14 21:50:00,73.5,65.1,30.04,NNE,29,5.0,7.0,75,0.00,CLR,,0.00,WeatherDisplay:10.37,2013-07-14 19:50:00,
2013-07-14 22:00:00,73.3,64.9,30.04,NNE,13,7.0,10.0,75,0.00,CLR,,0.00,WeatherDisplay:10.37,2013-07-14 20:00:00,
2013-07-14 22:10:00,72.8,65.2,30.04,North,10,3.0,8.0,77,0.00,CLR,,0.00,WeatherDisplay:10.37,2013-07-14 20:10:00,
2013-07-14 22:20:00,72.5,64.9,30.04,NNE,18,6.0,7.0,77,0.00,CLR,,0.00,WeatherDisplay:10.37,2013-07-14 20:20:00,
2013-07-14 22:30:00,72.8,64.8,30.04,NNE,27,3.0,6.0,76,0.00,CLR,,0.00,WeatherDisplay:10.37,2013-07-14 20:30:00,
2013-07-14 22:40:00,73.1,64.3,30.04,NNE,21,5.0,8.0,74,0.00,CLR,,0.00,WeatherDisplay:10.37,2013-07-14 20:40:00,
2013-07-14 22:50:00,73.1,64.3,30.04,North,1,3.0,8.0,74,0.00,CLR,,0.00,WeatherDisplay:10.37,2013-07-14 20:50:00,
2013-07-14 23:00:00,72.5,63.7,30.04,North,357,5.0,12.0,74,0.00,CLR,,0.00,WeatherDisplay:10.37,2013-07-14 21:00:00,
2013-07-14 23:10:00,72.4,63.6,30.04,North,3,5.0,8.0,74,0.00,CLR,,0.00,WeatherDisplay:10.37,2013-07-14 21:10:00,
2013-07-14 23:20:00,72.6,63.1,30.05,NNE,22,5.0,12.0,72,0.00,CLR,,0.00,WeatherDisplay:10.37,2013-07-14 21:20:00,
2013-07-14 23:30:00,72.9,62.9,30.05,NNE,14,6.0,10.0,71,0.00,CLR,,0.00,WeatherDisplay:10.37,2013-07-14 21:30:00,